KCNK/CNK METAR and TAF weather

Enter ICAO airport designator
Station Type Date Time Source
KCNK METAR 2021/08/01 16:55 UTC NOAA

KCNK 011655Z AUTO 36010KT 9SM CLR 27/16 A3023 RMK AO2 SLP223 T02670156


Station Type Date Time Source
KCNK Decoded METAR 2021/08/01 16:55 UTC NOAA

Concordia, Blosser Municipal Airport, KS, United States (KCNK) 39-33-05N 097-39-02W 447M
Aug 01, 2021 - 12:55 PM EDT / 2021.08.01 1655 UTC
Wind: from the N (360 degrees) at 12 MPH (10 KT):0
Visibility: 9 mile(s):0
Sky conditions: clear
Temperature: 80.1 F (26.7 C)
Dew Point: 60.1 F (15.6 C)
Relative Humidity: 50%
Pressure (altimeter): 30.23 in. Hg (1023 hPa)
ob: KCNK 011655Z AUTO 36010KT 9SM CLR 27/16 A3023 RMK AO2 SLP223 T02670156
cycle: 17

Station Type Date Time Source
KCNK TAF UTC NOAA

Error!

Example: see airport list